| time (UTC) | temp F | wind direction | speed knots | gust knots | rain 1hr in | rain 24hr in | rain mn in | humidity % | barometer mb |
| 20260506051240 | 48 | 323 | 0.9 | 6.1 | 0.03 | 0.30 | 0.28 | 97 | 1004.9 |
| 20260506050738 | 48 | 350 | 3.5 | 6.1 | 0.03 | 0.30 | 0.28 | 97 | 1004.9 |
| 20260506050237 | 48 | 22 | 0.9 | 6.1 | 0.03 | 0.30 | 0.28 | 97 | 1004.9 |
| 20260506044736 | 48 | 340 | 1.7 | 5.2 | 0.03 | 0.30 | 0.28 | 97 | 1004.9 |
| 20260506044235 | 48 | 329 | 3.5 | 5.2 | 0.04 | 0.30 | 0.28 | 97 | 1004.9 |
| 20260506043735 | 48 | 28 | 0.9 | 5.2 | 0.04 | 0.30 | 0.28 | 97 | 1004.8 |
| 20260506043235 | 48 | 62 | 1.7 | 5.2 | 0.04 | 0.30 | 0.28 | 97 | 1004.9 |
| 20260506042733 | 48 | 58 | 0.9 | 3.5 | 0.05 | 0.30 | 0.28 | 97 | 1004.8 |
| 20260506042233 | 48 | 329 | 2.6 | 3.5 | 0.05 | 0.30 | 0.28 | 97 | 1004.7 |
| 20260506041732 | 48 | 342 | 1.7 | 2.6 | 0.02 | 0.27 | 0.25 | 97 | 1004.9 |
| 20260506041231 | 48 | 31 | 0.0 | 2.6 | 0.03 | 0.27 | 0.25 | 97 | 1004.9 |
| 20260506040950 | 48 | 323 | 0.9 | 5.2 | 0.03 | 0.27 | 0.25 | 97 | 1005.0 |
| 20260506040230 | 48 | 63 | 3.5 | 5.2 | 0.03 | 0.27 | 0.25 | 97 | 1004.9 |
| 20260506035730 | 48 | 40 | 0.9 | 5.2 | 0.04 | 0.27 | 0.25 | 97 | 1004.8 |
| 20260506035230 | 48 | 355 | 1.7 | 6.1 | 0.04 | 0.27 | 0.25 | 97 | 1004.9 |
| 20260506034947 | 48 | 31 | 0.0 | 6.1 | 0.04 | 0.26 | 0.24 | 97 | 1004.8 |
| 20260506033731 | 48 | 336 | 0.9 | 6.1 | 0.04 | 0.26 | 0.24 | 97 | 1004.9 |
| 20260506033227 | 48 | 0 | 0.0 | 5.2 | 0.04 | 0.25 | 0.24 | 97 | 1005.0 |
| 20260506032726 | 48 | 43 | 2.6 | 5.2 | 0.04 | 0.25 | 0.24 | 97 | 1004.8 |
| 20260506032225 | 48 | 358 | 2.6 | 5.2 | 0.04 | 0.25 | 0.23 | 97 | 1005.0 |
| 20260506031725 | 48 | 337 | 1.7 | 7.0 | 0.04 | 0.24 | 0.23 | 97 | 1005.1 |
| 20260506031452 | 48 | 54 | 3.5 | 7.0 | 0.04 | 0.24 | 0.22 | 97 | 1005.1 |
| 20260506030724 | 48 | 331 | 1.7 | 5.2 | 0.04 | 0.27 | 0.22 | 97 | 1005.1 |
| 20260506030224 | 48 | 348 | 2.6 | 5.2 | 0.04 | 0.27 | 0.22 | 97 | 1005.1 |
| 20260506025724 | 48 | 70 | 1.7 | 5.2 | 0.04 | 0.26 | 0.22 | 97 | 1005.1 |
| 20260506025222 | 48 | 341 | 1.7 | 5.2 | 0.04 | 0.26 | 0.21 | 97 | 1005.1 |
| 20260506024721 | 48 | 3 | 1.7 | 5.2 | 0.04 | 0.26 | 0.21 | 97 | 1005.1 |
| 20260506024221 | 48 | 351 | 0.9 | 6.1 | 0.04 | 0.25 | 0.20 | 97 | 1005.2 |
| 20260506023737 | 48 | 336 | 2.6 | 6.1 | 0.04 | 0.25 | 0.20 | 97 | 1005.2 |
| 20260506023440 | 48 | 31 | 1.7 | 5.2 | 0.04 | 0.25 | 0.20 | 97 | 1005.3 |
| 20260506022719 | 48 | 358 | 0.0 | 3.5 | 0.04 | 0.24 | 0.20 | 97 | 1005.2 |
| 20260506022218 | 48 | 21 | 0.0 | 3.5 | 0.04 | 0.24 | 0.19 | 97 | 1005.2 |
| 20260506021719 | 48 | 320 | 0.9 | 5.2 | 0.04 | 0.24 | 0.19 | 97 | 1005.2 |
| 20260506021217 | 48 | 0 | 0.9 | 5.2 | 0.04 | 0.23 | 0.19 | 97 | 1005.2 |
| 20260506020717 | 48 | 331 | 0.9 | 3.5 | 0.04 | 0.23 | 0.18 | 97 | 1005.3 |
| 20260506020216 | 48 | 53 | 2.6 | 3.5 | 0.04 | 0.22 | 0.18 | 97 | 1005.4 |
| 20260506015716 | 48 | 20 | 0.9 | 6.1 | 0.04 | 0.22 | 0.17 | 97 | 1005.4 |
| 20260506015225 | 48 | 41 | 0.9 | 6.1 | 0.04 | 0.22 | 0.17 | 97 | 1005.6 |
| 20260506014715 | 48 | 44 | 0.9 | 6.1 | 0.04 | 0.22 | 0.17 | 96 | 1005.3 |
| 20260506014214 | 48 | 33 | 0.9 | 3.5 | 0.04 | 0.21 | 0.17 | 96 | 1005.5 |
| 20260506013715 | 48 | 325 | 2.6 | 3.5 | 0.04 | 0.21 | 0.16 | 96 | 1005.5 |
| 20260506013213 | 48 | 15 | 0.9 | 6.1 | 0.04 | 0.20 | 0.16 | 96 | 1005.5 |
| 20260506012712 | 48 | 17 | 3.5 | 6.1 | 0.04 | 0.20 | 0.15 | 96 | 1005.5 |
| 20260506012212 | 48 | 334 | 1.7 | 6.1 | 0.05 | 0.20 | 0.15 | 96 | 1005.4 |
| 20260506011712 | 48 | 343 | 0.9 | 6.1 | 0.05 | 0.20 | 0.15 | 96 | 1005.6 |
| 20260506011211 | 48 | 356 | 0.9 | 3.5 | 0.05 | 0.19 | 0.15 | 96 | 1005.6 |
| 20260506010711 | 48 | 351 | 1.7 | 3.5 | 0.05 | 0.19 | 0.14 | 96 | 1005.5 |
| 20260506010210 | 48 | 338 | 0.0 | 3.5 | 0.05 | 0.19 | 0.14 | 96 | 1005.8 |
| 20260506005710 | 48 | 338 | 0.9 | 5.2 | 0.05 | 0.18 | 0.13 | 96 | 1005.6 |
| 20260506005209 | 48 | 340 | 2.6 | 5.2 | 0.05 | 0.18 | 0.13 | 96 | 1005.7 |
| 20260506004708 | 48 | 29 | 0.9 | 5.2 | 0.05 | 0.17 | 0.13 | 96 | 1005.6 |
| 20260506004207 | 48 | 38 | 1.7 | 5.2 | 0.05 | 0.17 | 0.12 | 96 | 1005.8 |
| 20260506003707 | 48 | 340 | 1.7 | 6.1 | 0.05 | 0.17 | 0.12 | 96 | 1005.7 |
| 20260506003427 | 48 | 340 | 2.6 | 7.0 | 0.04 | 0.16 | 0.11 | 96 | 1005.9 |
| 20260506002705 | 48 | 61 | 2.6 | 7.0 | 0.04 | 0.16 | 0.11 | 96 | 1005.9 |
| 20260506002205 | 48 | 30 | 0.0 | 7.0 | 0.04 | 0.15 | 0.11 | 95 | 1005.8 |
| 20260506001706 | 48 | 1 | 0.9 | 7.0 | 0.03 | 0.15 | 0.10 | 95 | 1006.0 |
| 20260506000703 | 48 | 58 | 4.3 | 6.1 | 0.03 | 0.14 | 0.09 | 95 | 1006.0 |
| 20260506000428 | 48 | 0 | 3.5 | 5.2 | 0.03 | 0.13 | 0.09 | 95 | 1005.9 |
| 20260505235704 | 49 | 11 | 1.7 | 5.2 | 0.03 | 0.13 | 0.08 | 95 | 1005.9 |
| 20260505235201 | 49 | 337 | 0.0 | 3.5 | 0.04 | 0.13 | 0.08 | 95 | 1006.2 |
| 20260505234700 | 49 | 54 | 0.9 | 8.7 | 0.04 | 0.12 | 0.07 | 95 | 1006.2 |
| 20260505234419 | 49 | 27 | 2.6 | 8.7 | 0.04 | 0.12 | 0.07 | 95 | 1006.2 |
| 20260505233659 | 49 | 355 | 1.7 | 7.0 | 0.04 | 0.12 | 0.07 | 95 | 1006.3 |
| 20260505233200 | 49 | 14 | 4.3 | 6.1 | 0.04 | 0.12 | 0.07 | 95 | 1006.3 |
| 20260505232659 | 49 | 46 | 2.6 | 7.8 | 0.04 | 0.11 | 0.07 | 95 | 1006.4 |
| 20260505232158 | 49 | 36 | 1.7 | 7.8 | 0.04 | 0.11 | 0.07 | 95 | 1006.2 |
| 20260505231657 | 49 | 20 | 1.7 | 7.0 | 0.05 | 0.11 | 0.07 | 95 | 1006.4 |
| 20260505231158 | 49 | 350 | 3.5 | 7.0 | 0.05 | 0.11 | 0.06 | 94 | 1006.5 |
| 20260505230656 | 49 | 58 | 2.6 | 6.1 | 0.05 | 0.11 | 0.06 | 94 | 1006.5 |
| 20260505230156 | 49 | 334 | 0.9 | 6.1 | 0.06 | 0.10 | 0.06 | 94 | 1006.3 |
| 20260505225655 | 49 | 41 | 0.9 | 6.1 | 0.05 | 0.10 | 0.05 | 94 | 1006.5 |
| 20260505225156 | 49 | 305 | 3.5 | 6.1 | 0.04 | 0.09 | 0.04 | 94 | 1006.6 |
| 20260505224654 | 49 | 43 | 0.9 | 5.2 | 0.04 | 0.09 | 0.04 | 94 | 1006.6 |
| 20260505224153 | 49 | 24 | 1.7 | 8.7 | 0.04 | 0.08 | 0.04 | 94 | 1006.5 |
| 20260505223653 | 49 | 349 | 2.6 | 8.7 | 0.03 | 0.08 | 0.03 | 94 | 1006.6 |
| 20260505223154 | 49 | 347 | 1.7 | 6.1 | 0.03 | 0.07 | 0.03 | 93 | 1006.5 |
| 20260505222652 | 49 | 346 | 3.5 | 6.1 | 0.02 | 0.07 | 0.03 | 93 | 1006.6 |
| 20260505222151 | 49 | 330 | 2.6 | 6.1 | 0.02 | 0.07 | 0.02 | 93 | 1006.6 |
| 20260505221651 | 49 | 40 | 2.6 | 6.1 | 0.02 | 0.07 | 0.02 | 93 | 1006.6 |
| 20260505221149 | 50 | 329 | 4.3 | 7.8 | 0.02 | 0.06 | 0.02 | 92 | 1006.6 |
| 20260505220650 | 50 | 1 | 1.7 | 5.2 | 0.01 | 0.06 | 0.01 | 92 | 1006.6 |
| 20260505220415 | 50 | 332 | 0.9 | 5.2 | 0.00 | 0.05 | 0.00 | 91 | 1006.7 |
| 20260505215648 | 50 | 16 | 1.7 | 5.2 | 0.00 | 0.05 | 0.05 | 91 | 1006.7 |
| 20260505215147 | 50 | 22 | 0.9 | 3.5 | 0.00 | 0.06 | 0.05 | 90 | 1006.8 |
| 20260505214701 | 50 | 25 | 0.9 | 5.2 | 0.00 | 0.06 | 0.05 | 89 | 1006.7 |
| 20260505214146 | 51 | 285 | 1.7 | 7.0 | 0.00 | 0.06 | 0.05 | 89 | 1006.7 |
| 20260505213911 | 51 | 326 | 3.5 | 7.0 | 0.00 | 0.06 | 0.05 | 88 | 1006.9 |
| 20260505213147 | 51 | 352 | 3.5 | 6.1 | 0.00 | 0.07 | 0.05 | 88 | 1006.8 |
| 20260505212644 | 51 | 58 | 3.5 | 7.0 | 0.00 | 0.09 | 0.05 | 87 | 1006.8 |
| 20260505212144 | 51 | 73 | 1.7 | 7.8 | 0.00 | 0.17 | 0.05 | 87 | 1007.0 |
| 20260505211644 | 51 | 127 | 3.5 | 7.8 | 0.00 | 0.17 | 0.05 | 87 | 1006.9 |
| 20260505211144 | 51 | 4 | 5.2 | 7.8 | 0.00 | 0.17 | 0.05 | 86 | 1006.9 |
| 20260505210642 | 51 | 62 | 0.9 | 7.0 | 0.00 | 0.17 | 0.05 | 86 | 1007.0 |
| 20260505210142 | 51 | 94 | 3.5 | 7.0 | 0.00 | 0.17 | 0.05 | 86 | 1007.0 |
| 20260505205641 | 51 | 358 | 3.5 | 7.0 | 0.00 | 0.17 | 0.05 | 86 | 1006.9 |
| 20260505205142 | 51 | 53 | 2.6 | 7.8 | 0.00 | 0.17 | 0.05 | 87 | 1007.0 |
| 20260505204905 | 51 | 244 | 2.6 | 7.8 | 0.00 | 0.17 | 0.05 | 87 | 1007.0 |
| 20260505204139 | 52 | 27 | 1.7 | 6.1 | 0.00 | 0.17 | 0.05 | 87 | 1007.1 |
| 20260505203641 | 52 | 80 | 0.9 | 5.2 | 0.00 | 0.17 | 0.05 | 87 | 1006.9 |
| 20260505203402 | 52 | 359 | 3.5 | 7.0 | 0.00 | 0.17 | 0.05 | 87 | 1007.1 |
| 20260505202637 | 52 | 329 | 1.7 | 7.0 | 0.00 | 0.17 | 0.05 | 87 | 1007.0 |
| 20260505202137 | 52 | 39 | 1.7 | 6.1 | 0.00 | 0.17 | 0.05 | 87 | 1007.0 |
| 20260505201637 | 52 | 14 | 1.7 | 7.8 | 0.00 | 0.17 | 0.05 | 87 | 1007.0 |
| 20260505201403 | 52 | 22 | 2.6 | 7.8 | 0.00 | 0.17 | 0.05 | 87 | 1007.0 |
| 20260505200635 | 52 | 64 | 0.9 | 7.0 | 0.00 | 0.17 | 0.05 | 87 | 1007.1 |
| 20260505200134 | 52 | 345 | 0.0 | 7.0 | 0.00 | 0.17 | 0.05 | 87 | 1007.0 |
| 20260505195634 | 52 | 316 | 0.9 | 7.0 | 0.00 | 0.17 | 0.05 | 87 | 1007.2 |
| 20260505195405 | 52 | 47 | 2.6 | 7.0 | 0.00 | 0.17 | 0.05 | 87 | 1007.3 |
| 20260505194633 | 52 | 29 | 1.7 | 6.1 | 0.00 | 0.17 | 0.05 | 87 | 1007.0 |
| 20260505194357 | 52 | 326 | 4.3 | 6.1 | 0.00 | 0.17 | 0.05 | 87 | 1006.8 |
| 20260505193859 | 52 | 313 | 2.6 | 7.0 | 0.00 | 0.17 | 0.05 | 88 | 1007.0 |
| 20260505193131 | 52 | 52 | 3.5 | 7.0 | 0.00 | 0.17 | 0.05 | 88 | 1006.9 |
| 20260505192630 | 52 | 359 | 3.5 | 7.0 | 0.00 | 0.17 | 0.05 | 88 | 1007.0 |
| 20260505192131 | 52 | 45 | 3.5 | 7.0 | 0.00 | 0.17 | 0.05 | 88 | 1007.0 |
| 20260505191629 | 52 | 8 | 1.7 | 6.1 | 0.00 | 0.17 | 0.05 | 88 | 1007.0 |
| 20260505191129 | 52 | 8 | 1.7 | 6.1 | 0.00 | 0.17 | 0.05 | 88 | 1006.9 |
| 20260505190628 | 52 | 36 | 1.7 | 6.1 | 0.00 | 0.17 | 0.05 | 88 | 1006.7 |
| 20260505190129 | 52 | 357 | 0.9 | 6.1 | 0.00 | 0.17 | 0.05 | 88 | 1006.9 |
| 20260505185626 | 52 | 346 | 2.6 | 3.5 | 0.00 | 0.17 | 0.05 | 88 | 1006.6 |
| 20260505185126 | 52 | 33 | 0.9 | 5.2 | 0.00 | 0.17 | 0.05 | 88 | 1006.7 |
| 20260505184625 | 52 | 325 | 1.7 | 7.0 | 0.00 | 0.17 | 0.05 | 88 | 1006.6 |
| 20260505184350 | 52 | 342 | 1.7 | 7.0 | 0.00 | 0.17 | 0.05 | 87 | 1006.5 |
| 20260505183625 | 53 | 33 | 0.9 | 5.2 | 0.00 | 0.17 | 0.05 | 88 | 1006.6 |
| 20260505183344 | 53 | 40 | 0.0 | 5.2 | 0.00 | 0.17 | 0.05 | 88 | 1006.6 |
| 20260505182623 | 53 | 337 | 1.7 | 6.1 | 0.00 | 0.17 | 0.05 | 88 | 1006.6 |
| 20260505182355 | 53 | 354 | 1.7 | 6.1 | 0.00 | 0.17 | 0.05 | 87 | 1006.6 |
| 20260505181842 | 53 | 6 | 4.3 | 6.1 | 0.00 | 0.17 | 0.05 | 87 | 1006.6 |
| 20260505181122 | 53 | 38 | 1.7 | 6.1 | 0.00 | 0.17 | 0.05 | 87 | 1006.6 |
| 20260505180621 | 53 | 10 | 0.0 | 6.1 | 0.00 | 0.17 | 0.05 | 87 | 1006.9 |
| 20260505180345 | 53 | 277 | 1.7 | 7.0 | 0.00 | 0.17 | 0.05 | 87 | 1006.7 |
| 20260505175620 | 53 | 329 | 0.9 | 7.0 | 0.00 | 0.17 | 0.05 | 87 | 1006.8 |
| 20260505175346 | 53 | 357 | 1.7 | 7.0 | 0.00 | 0.26 | 0.05 | 87 | 1006.6 |
| 20260505174619 | 53 | 62 | 0.0 | 6.1 | 0.00 | 0.26 | 0.05 | 87 | 1006.5 |
| 20260505174117 | 53 | 341 | 1.7 | 5.2 | 0.00 | 0.26 | 0.05 | 87 | 1006.4 |
| 20260505173836 | 53 | 52 | 0.9 | 5.2 | 0.00 | 0.26 | 0.05 | 87 | 1006.5 |
| 20260505172615 | 53 | 49 | 0.9 | 3.5 | 0.00 | 0.26 | 0.05 | 87 | 1006.7 |
| 20260505172117 | 53 | 37 | 2.6 | 3.5 | 0.00 | 0.26 | 0.05 | 88 | 1006.7 |
| 20260505171614 | 53 | 22 | 0.9 | 3.5 | 0.00 | 0.26 | 0.05 | 87 | 1006.6 |
| 20260505171338 | 53 | 5 | 0.9 | 3.5 | 0.00 | 0.26 | 0.05 | 87 | 1006.7 |
| 20260505170614 | 54 | 63 | 0.9 | 3.5 | 0.00 | 0.26 | 0.05 | 88 | 1007.0 |
| 20260505170117 | 54 | 342 | 0.9 | 5.2 | 0.00 | 0.26 | 0.05 | 88 | 1006.9 |
| 20260505165613 | 54 | 55 | 3.5 | 5.2 | 0.00 | 0.26 | 0.05 | 88 | 1007.1 |
| 20260505165111 | 54 | 80 | 1.7 | 3.5 | 0.00 | 0.26 | 0.05 | 88 | 1006.9 |
| 20260505164612 | 54 | 51 | 1.7 | 7.8 | 0.00 | 0.26 | 0.05 | 88 | 1007.0 |
| 20260505164112 | 54 | 347 | 0.9 | 7.8 | 0.00 | 0.26 | 0.05 | 88 | 1007.0 |
| 20260505163610 | 54 | 3 | 0.9 | 9.6 | 0.00 | 0.26 | 0.05 | 88 | 1006.9 |
| 20260505163108 | 54 | 345 | 0.9 | 9.6 | 0.00 | 0.26 | 0.05 | 88 | 1007.0 |
| 20260505162609 | 54 | 52 | 0.0 | 2.6 | 0.00 | 0.26 | 0.05 | 89 | 1006.8 |
| 20260505162108 | 54 | 6 | 0.0 | 5.2 | 0.00 | 0.27 | 0.05 | 89 | 1007.1 |
| 20260505161607 | 54 | 38 | 1.7 | 5.2 | 0.00 | 0.29 | 0.05 | 89 | 1007.1 |
| 20260505161328 | 54 | 286 | 1.7 | 3.5 | 0.00 | 0.29 | 0.05 | 89 | 1006.8 |
| 20260505160607 | 54 | 335 | 1.7 | 2.6 | 0.00 | 0.31 | 0.05 | 89 | 1007.1 |
| 20260505160111 | 53 | 331 | 0.0 | 5.2 | 0.00 | 0.34 | 0.05 | 89 | 1006.9 |
| 20260505153101 | 53 | 22 | 0.9 | 5.2 | 0.00 | 0.44 | 0.05 | 88 | 1007.4 |
| 20260505152602 | 54 | 61 | 0.9 | 5.2 | 0.00 | 0.44 | 0.05 | 88 | 1007.1 |
| 20260505152100 | 54 | 71 | 2.6 | 5.2 | 0.00 | 0.45 | 0.05 | 87 | 1007.2 |
| 20260505151818 | 54 | 13 | 1.7 | 6.1 | 0.00 | 0.45 | 0.05 | 87 | 1007.2 |
| 20260505151059 | 54 | 47 | 1.7 | 6.1 | 0.00 | 0.46 | 0.05 | 87 | 1007.3 |
| 20260505150825 | 54 | 105 | 0.9 | 6.1 | 0.00 | 0.47 | 0.05 | 88 | 1007.5 |
| 20260505150330 | 54 | 85 | 2.6 | 6.1 | 0.00 | 0.50 | 0.05 | 88 | 1007.2 |
| 20260505140553 | 53 | 24 | 2.6 | 5.2 | 0.00 | 0.53 | 0.05 | 90 | 1007.5 |
| 20260505124542 | 52 | 29 | 2.6 | 6.1 | 0.00 | 0.53 | 0.05 | 92 | 1008.2 |
| 20260505124040 | 52 | 77 | 1.7 | 3.5 | 0.00 | 0.53 | 0.05 | 92 | 1008.2 |
| 20260505123540 | 52 | 39 | 0.0 | 2.6 | 0.00 | 0.53 | 0.05 | 92 | 1008.1 |
| 20260505123040 | 52 | 35 | 1.7 | 3.5 | 0.00 | 0.53 | 0.05 | 92 | 1007.9 |
| 20260505122541 | 52 | 4 | 0.9 | 6.1 | 0.00 | 0.53 | 0.05 | 92 | 1008.3 |
| 20260505122038 | 51 | 340 | 1.7 | 6.1 | 0.00 | 0.53 | 0.05 | 92 | 1008.3 |
| 20260505121538 | 51 | 34 | 3.5 | 6.1 | 0.00 | 0.53 | 0.05 | 92 | 1008.4 |
| 20260505121037 | 51 | 61 | 0.9 | 3.5 | 0.00 | 0.53 | 0.05 | 92 | 1008.3 |
| 20260505120756 | 51 | 72 | 1.7 | 5.2 | 0.00 | 0.53 | 0.05 | 92 | 1008.3 |
| 20260505120036 | 51 | 35 | 2.6 | 5.2 | 0.00 | 0.53 | 0.05 | 92 | 1008.3 |
| 20260505115536 | 51 | 335 | 0.9 | 5.2 | 0.00 | 0.53 | 0.05 | 93 | 1008.4 |
| 20260505115035 | 51 | 4 | 2.6 | 5.2 | 0.00 | 0.53 | 0.05 | 93 | 1008.4 |
| 20260505114549 | 51 | 347 | 1.7 | 3.5 | 0.00 | 0.53 | 0.05 | 93 | 1008.7 |
| 20260505114034 | 51 | 60 | 0.0 | 5.2 | 0.00 | 0.53 | 0.05 | 93 | 1008.6 |
| 20260505113533 | 51 | 99 | 1.7 | 5.2 | 0.00 | 0.53 | 0.05 | 93 | 1008.8 |
| 20260505113032 | 50 | 60 | 0.9 | 5.2 | 0.00 | 0.53 | 0.05 | 93 | 1008.5 |
| 20260505112533 | 50 | 354 | 1.7 | 5.2 | 0.00 | 0.53 | 0.05 | 93 | 1008.6 |
| 20260505112033 | 50 | 334 | 0.9 | 7.0 | 0.00 | 0.53 | 0.05 | 93 | 1008.5 |
| 20260505111531 | 50 | 74 | 0.0 | 7.0 | 0.00 | 0.53 | 0.05 | 93 | 1008.6 |
| 20260505111031 | 50 | 334 | 0.0 | 5.2 | 0.00 | 0.53 | 0.05 | 92 | 1008.8 |
| 20260505110753 | 50 | 49 | 2.6 | 5.2 | 0.00 | 0.53 | 0.05 | 92 | 1008.6 |
| 20260505102025 | 51 | 56 | 1.7 | 7.0 | 0.00 | 0.53 | 0.05 | 92 | 1008.8 |
| 20260505101524 | 51 | 327 | 2.6 | 7.0 | 0.00 | 0.53 | 0.05 | 92 | 1008.5 |
| 20260505101023 | 51 | 42 | 3.5 | 7.0 | 0.00 | 0.53 | 0.05 | 92 | 1008.6 |
| 20260505100744 | 50 | 49 | 1.7 | 5.2 | 0.00 | 0.53 | 0.05 | 92 | 1008.8 |
| 20260505100246 | 50 | 91 | 0.9 | 5.2 | 0.00 | 0.53 | 0.05 | 92 | 1008.8 |
| 20260505095747 | 50 | 349 | 1.7 | 5.2 | 0.00 | 0.53 | 0.05 | 92 | 1008.8 |
| 20260505095021 | 51 | 29 | 3.5 | 5.2 | 0.00 | 0.53 | 0.05 | 92 | 1008.8 |
| 20260505094520 | 50 | 87 | 1.7 | 6.1 | 0.00 | 0.53 | 0.05 | 92 | 1008.8 |
| 20260505094239 | 51 | 333 | 2.6 | 7.0 | 0.00 | 0.53 | 0.05 | 92 | 1008.8 |
| 20260505093748 | 51 | 11 | 2.6 | 7.0 | 0.00 | 0.53 | 0.05 | 93 | 1008.7 |
| 20260505093019 | 51 | 28 | 2.6 | 5.2 | 0.00 | 0.53 | 0.05 | 93 | 1008.7 |
| 20260505092531 | 51 | 61 | 1.7 | 5.2 | 0.00 | 0.53 | 0.05 | 93 | 1008.9 |
| 20260505092033 | 50 | 19 | 1.7 | 7.0 | 0.00 | 0.53 | 0.05 | 93 | 1008.8 |
| 20260505091517 | 50 | 26 | 1.7 | 7.0 | 0.00 | 0.53 | 0.05 | 93 | 1008.6 |
| 20260505091017 | 50 | 354 | 2.6 | 8.7 | 0.00 | 0.53 | 0.05 | 94 | 1008.8 |
| 20260505090516 | 50 | 31 | 4.3 | 8.7 | 0.00 | 0.53 | 0.05 | 94 | 1008.9 |
| 20260505090017 | 50 | 337 | 1.7 | 7.0 | 0.00 | 0.53 | 0.05 | 94 | 1008.9 |
| 20260505085515 | 50 | 326 | 3.5 | 7.0 | 0.00 | 0.53 | 0.05 | 94 | 1009.1 |
| 20260505085014 | 50 | 83 | 0.9 | 5.2 | 0.00 | 0.53 | 0.05 | 95 | 1008.9 |
| 20260505084733 | 50 | 52 | 0.0 | 2.6 | 0.00 | 0.53 | 0.05 | 95 | 1008.8 |
| 20260505084240 | 50 | 30 | 0.0 | 5.2 | 0.00 | 0.53 | 0.05 | 95 | 1008.9 |
| 20260505083014 | 49 | 86 | 2.6 | 8.7 | 0.00 | 0.53 | 0.05 | 95 | 1008.8 |
| 20260505082511 | 49 | 62 | 1.7 | 8.7 | 0.00 | 0.53 | 0.05 | 95 | 1009.0 |
| 20260505082011 | 49 | 54 | 3.5 | 7.0 | 0.00 | 0.53 | 0.05 | 95 | 1008.9 |
| 20260505081510 | 49 | 51 | 3.5 | 7.0 | 0.00 | 0.53 | 0.05 | 95 | 1008.7 |
| 20260505081012 | 49 | 338 | 1.7 | 7.0 | 0.00 | 0.53 | 0.05 | 95 | 1008.8 |
| 20260505080509 | 49 | 46 | 2.6 | 6.1 | 0.00 | 0.53 | 0.05 | 95 | 1008.9 |
| 20260505080008 | 49 | 359 | 2.6 | 6.1 | 0.00 | 0.53 | 0.05 | 95 | 1008.7 |
| 20260505075508 | 50 | 0 | 1.7 | 6.1 | 0.00 | 0.53 | 0.05 | 95 | 1009.0 |
| 20260505075008 | 50 | 274 | 1.7 | 6.1 | 0.00 | 0.53 | 0.05 | 95 | 1008.8 |
| 20260505074509 | 50 | 1 | 3.5 | 6.1 | 0.00 | 0.53 | 0.05 | 95 | 1008.7 |
| 20260505074232 | 50 | 104 | 4.3 | 6.1 | 0.00 | 0.53 | 0.05 | 96 | 1008.9 |
| 20260505073505 | 50 | 4 | 0.9 | 5.2 | 0.00 | 0.53 | 0.05 | 96 | 1008.6 |
| 20260505073007 | 50 | 38 | 0.0 | 6.1 | 0.00 | 0.53 | 0.05 | 96 | 1008.7 |
| 20260505072506 | 50 | 60 | 1.7 | 7.0 | 0.00 | 0.53 | 0.05 | 96 | 1008.7 |
| 20260505072005 | 50 | 0 | 0.0 | 7.0 | 0.00 | 0.53 | 0.05 | 96 | 1008.8 |
| 20260505071503 | 50 | 4 | 1.7 | 7.0 | 0.00 | 0.53 | 0.05 | 96 | 1008.8 |
| 20260505071004 | 50 | 359 | 0.9 | 7.0 | 0.00 | 0.53 | 0.05 | 96 | 1008.9 |
| 20260505070502 | 50 | 9 | 2.6 | 5.2 | 0.00 | 0.53 | 0.05 | 96 | 1008.9 |
| 20260505070221 | 50 | 50 | 1.7 | 7.0 | 0.00 | 0.52 | 0.04 | 96 | 1008.8 |
| 20260505065502 | 50 | 101 | 2.6 | 7.0 | 0.00 | 0.52 | 0.04 | 96 | 1008.8 |
| 20260505065000 | 50 | 350 | 0.0 | 6.1 | 0.00 | 0.52 | 0.04 | 96 | 1008.9 |
| 20260505064500 | 50 | 355 | 1.7 | 5.2 | 0.01 | 0.52 | 0.04 | 96 | 1008.9 |
| 20260505063959 | 50 | 36 | 1.7 | 5.2 | 0.01 | 0.52 | 0.04 | 96 | 1009.0 |
| 20260505063501 | 50 | 57 | 1.7 | 3.5 | 0.01 | 0.52 | 0.04 | 96 | 1008.9 |
| 20260505062958 | 50 | 352 | 1.7 | 6.1 | 0.01 | 0.52 | 0.04 | 96 | 1009.0 |
| 20260505062457 | 50 | 31 | 1.7 | 6.1 | 0.01 | 0.52 | 0.04 | 96 | 1009.0 |
| 20260505061957 | 50 | 35 | 2.6 | 7.8 | 0.01 | 0.52 | 0.04 | 96 | 1009.1 |
| 20260505061456 | 50 | 77 | 1.7 | 7.8 | 0.01 | 0.52 | 0.04 | 96 | 1009.0 |
| 20260505060725 | 50 | 21 | 1.7 | 5.2 | 0.01 | 0.52 | 0.04 | 96 | 1008.9 |
| 20260505055954 | 50 | 37 | 0.9 | 3.5 | 0.01 | 0.52 | 0.04 | 97 | 1008.8 |
| 20260505055456 | 50 | 2 | 3.5 | 3.5 | 0.01 | 0.52 | 0.04 | 97 | 1008.9 |
| 20260505054954 | 50 | 43 | 1.7 | 5.2 | 0.01 | 0.52 | 0.04 | 97 | 1009.0 |